createdAt,value
2018-07-08T00:00:42.695Z,48.40
2018-07-08T00:03:10.142Z,48.80
2018-07-08T00:05:37.571Z,48.60
2018-07-08T00:08:05.036Z,49.00
2018-07-08T00:10:32.487Z,49.00
2018-07-08T00:12:59.975Z,49.20
2018-07-08T00:15:27.468Z,49.30
2018-07-08T00:17:54.922Z,50.20
2018-07-08T00:22:49.735Z,50.30
2018-07-08T00:25:17.149Z,49.90
2018-07-08T00:27:44.562Z,49.90
2018-07-08T00:30:12.024Z,50.60
2018-07-08T00:32:39.425Z,50.70
2018-07-08T00:35:06.847Z,51.00
2018-07-08T00:37:34.516Z,51.30
2018-07-08T00:40:01.943Z,51.50
2018-07-08T00:42:29.358Z,51.70
2018-07-08T00:44:56.788Z,52.10
2018-07-08T00:47:24.215Z,52.10
2018-07-08T00:49:51.607Z,52.20
2018-07-08T00:52:19.021Z,52.10
2018-07-08T00:54:46.467Z,52.10
2018-07-08T00:57:13.895Z,52.50
2018-07-08T00:59:41.314Z,52.70
2018-07-08T01:04:36.115Z,51.70
2018-07-08T01:07:03.541Z,52.50
2018-07-08T01:09:30.967Z,52.50
2018-07-08T01:11:58.364Z,52.60
2018-07-08T01:14:25.806Z,53.10
2018-07-08T01:16:53.214Z,52.70
2018-07-08T01:19:20.618Z,52.70
2018-07-08T01:24:15.443Z,53.00
2018-07-08T01:26:43.028Z,53.00
2018-07-08T01:29:10.438Z,53.40
2018-07-08T01:31:37.887Z,53.50
2018-07-08T01:34:05.409Z,53.50
2018-07-08T01:36:32.841Z,53.40
2018-07-08T01:39:00.238Z,53.60
2018-07-08T01:41:27.631Z,53.80
2018-07-08T01:43:55.091Z,53.80
2018-07-08T01:48:49.915Z,53.90
2018-07-08T01:51:17.338Z,54.10
2018-07-08T01:53:44.788Z,53.60
2018-07-08T01:56:12.627Z,53.60
2018-07-08T01:58:40.780Z,53.30
2018-07-08T02:01:08.230Z,53.50
2018-07-08T02:03:35.705Z,53.20
2018-07-08T02:06:03.167Z,53.00
2018-07-08T02:08:30.955Z,53.30
2018-07-08T02:10:58.387Z,53.20
2018-07-08T02:13:25.806Z,53.20
2018-07-08T02:15:53.248Z,53.20
2018-07-08T02:20:48.101Z,53.20
2018-07-08T02:23:15.554Z,53.40
2018-07-08T02:25:42.999Z,53.10
2018-07-08T02:28:10.403Z,53.10
2018-07-08T02:30:37.835Z,53.00
2018-07-08T02:33:05.244Z,53.00
2018-07-08T02:35:32.692Z,53.10
2018-07-08T02:38:00.152Z,53.60
2018-07-08T02:40:27.616Z,53.30
2018-07-08T02:42:55.064Z,53.30
2018-07-08T02:45:22.520Z,53.30
2018-07-08T02:47:50.001Z,53.40
2018-07-08T02:50:17.444Z,53.50
2018-07-08T02:52:45.392Z,53.40
2018-07-08T02:55:12.807Z,53.50
2018-07-08T02:57:40.220Z,53.40
2018-07-08T03:02:35.003Z,53.30
2018-07-08T03:05:02.395Z,53.60
2018-07-08T03:07:29.798Z,53.50
2018-07-08T03:09:57.232Z,53.50
2018-07-08T03:12:24.618Z,53.60
2018-07-08T03:14:52.036Z,53.60
2018-07-08T03:17:19.460Z,53.70
2018-07-08T03:19:46.875Z,53.90
2018-07-08T03:22:14.275Z,54.20
2018-07-08T03:24:41.695Z,53.90
2018-07-08T03:27:09.112Z,53.30
2018-07-08T03:29:36.480Z,54.20
2018-07-08T03:32:03.868Z,54.20
2018-07-08T03:34:31.258Z,54.30
2018-07-08T03:36:58.650Z,54.40
2018-07-08T03:39:26.031Z,54.40
2018-07-08T03:41:53.431Z,54.50
2018-07-08T03:44:20.832Z,54.50
2018-07-08T03:46:48.261Z,54.60
2018-07-08T03:49:15.719Z,54.60
2018-07-08T03:51:43.144Z,54.70
2018-07-08T03:54:38.096Z,54.80
2018-07-08T03:57:05.607Z,55.00
2018-07-08T03:59:33.030Z,54.90
2018-07-08T04:02:00.469Z,55.00
2018-07-08T04:04:27.935Z,55.00
2018-07-08T04:06:55.323Z,55.20
2018-07-08T04:09:22.719Z,55.50
2018-07-08T04:11:50.156Z,56.00
2018-07-08T04:14:17.583Z,55.70
2018-07-08T04:16:45.716Z,56.00
2018-07-08T04:19:13.119Z,56.20
2018-07-08T04:21:40.619Z,56.20
2018-07-08T04:24:08.055Z,56.10
2018-07-08T04:26:35.456Z,56.40
2018-07-08T04:29:02.895Z,56.50
2018-07-08T04:31:30.281Z,56.40
2018-07-08T04:33:57.692Z,56.90
2018-07-08T04:36:25.094Z,56.90
2018-07-08T04:38:52.500Z,56.90
2018-07-08T04:41:19.898Z,56.90
2018-07-08T04:43:47.292Z,57.00
2018-07-08T04:46:14.695Z,57.10
2018-07-08T04:48:42.067Z,57.20
2018-07-08T04:51:09.479Z,57.50
2018-07-08T04:53:37.101Z,57.50
2018-07-08T04:56:04.594Z,57.30
2018-07-08T04:58:32.003Z,57.50
2018-07-08T05:00:59.471Z,57.50
2018-07-08T05:03:26.865Z,57.30
2018-07-08T05:05:54.300Z,57.70
2018-07-08T05:08:21.682Z,57.70
2018-07-08T05:10:49.112Z,57.90
2018-07-08T05:13:16.530Z,58.10
2018-07-08T05:15:43.982Z,58.00
2018-07-08T05:18:11.371Z,58.60
2018-07-08T05:20:38.807Z,58.50
2018-07-08T05:23:06.305Z,58.50
2018-07-08T05:25:33.688Z,59.50
2018-07-08T05:28:01.100Z,58.80
2018-07-08T05:30:28.642Z,59.00
2018-07-08T05:35:23.514Z,59.20
2018-07-08T05:37:50.920Z,59.70
2018-07-08T05:40:18.356Z,59.30
2018-07-08T05:42:45.838Z,59.60
2018-07-08T05:45:13.278Z,61.80
2018-07-08T05:47:40.668Z,63.30
2018-07-08T05:50:08.112Z,62.90
2018-07-08T05:52:35.510Z,63.40
2018-07-08T05:55:02.932Z,63.60
2018-07-08T05:57:30.330Z,63.40
2018-07-08T05:59:57.733Z,62.50
2018-07-08T06:02:25.140Z,61.30
2018-07-08T06:04:52.593Z,60.80
2018-07-08T06:07:20.055Z,59.60
2018-07-08T06:09:47.474Z,59.20
2018-07-08T06:12:14.887Z,58.90
2018-07-08T06:14:42.287Z,58.50
2018-07-08T06:17:09.742Z,58.20
2018-07-08T06:19:37.334Z,57.50
2018-07-08T06:22:04.806Z,56.00
2018-07-08T06:24:32.235Z,55.30
2018-07-08T06:26:59.619Z,54.80
2018-07-08T06:29:27.046Z,52.70
2018-07-08T06:31:54.500Z,52.00
2018-07-08T06:34:22.080Z,51.10
2018-07-08T06:36:49.483Z,52.20
2018-07-08T06:39:16.944Z,52.30
2018-07-08T06:41:44.342Z,52.10
2018-07-08T06:44:11.740Z,51.30
2018-07-08T06:46:39.135Z,50.40
2018-07-08T06:49:06.534Z,51.00
2018-07-08T06:51:33.968Z,51.10
2018-07-08T06:54:01.371Z,50.20
2018-07-08T06:56:28.791Z,48.80
2018-07-08T06:58:56.211Z,48.20
2018-07-08T07:01:23.692Z,49.20
2018-07-08T07:03:51.087Z,49.60
2018-07-08T07:06:18.491Z,49.70
2018-07-08T07:08:45.927Z,49.80
2018-07-08T07:11:13.447Z,48.70
2018-07-08T07:13:40.857Z,48.70
2018-07-08T07:16:08.273Z,48.20
2018-07-08T07:18:35.720Z,47.90
2018-07-08T07:21:03.203Z,46.80
2018-07-08T07:23:30.588Z,46.20
2018-07-08T07:25:58.002Z,44.80
2018-07-08T07:28:25.454Z,43.90
2018-07-08T07:30:52.847Z,44.30
2018-07-08T07:33:20.270Z,44.60
2018-07-08T07:38:15.078Z,44.30
2018-07-08T07:40:42.515Z,43.90
2018-07-08T07:43:10.509Z,43.70
2018-07-08T07:45:37.917Z,44.20
2018-07-08T07:48:05.515Z,43.50
2018-07-08T07:50:32.956Z,42.70
2018-07-08T07:53:00.391Z,43.50
2018-07-08T07:55:28.005Z,43.50
2018-07-08T07:57:55.393Z,43.80
2018-07-08T08:00:22.817Z,44.50
2018-07-08T08:02:50.239Z,43.80
2018-07-08T08:05:17.668Z,44.00
2018-07-08T08:07:45.060Z,43.40
2018-07-08T08:10:12.546Z,44.00
2018-07-08T08:12:39.995Z,44.30
2018-07-08T08:15:07.445Z,43.30
2018-07-08T08:17:35.164Z,42.60
2018-07-08T08:20:02.615Z,42.30
2018-07-08T08:22:30.038Z,42.40
2018-07-08T08:24:57.439Z,42.50
2018-07-08T08:27:24.882Z,42.80
2018-07-08T08:29:52.302Z,43.00
2018-07-08T08:32:19.907Z,42.90
2018-07-08T08:35:00.898Z,43.10
2018-07-08T08:37:33.322Z,42.80
2018-07-08T08:40:00.722Z,42.80
2018-07-08T08:42:28.162Z,43.10
2018-07-08T08:44:56.252Z,42.80
2018-07-08T08:47:24.103Z,42.60
2018-07-08T08:49:52.271Z,42.80
2018-07-08T08:52:19.756Z,43.40
2018-07-08T08:54:47.270Z,43.60
2018-07-08T08:57:14.675Z,43.50
2018-07-08T08:59:42.044Z,43.80
2018-07-08T09:02:09.971Z,44.00
2018-07-08T09:04:38.258Z,44.10
2018-07-08T09:07:05.996Z,44.30
2018-07-08T09:09:33.470Z,44.00
2018-07-08T09:12:01.032Z,43.30
2018-07-08T09:14:28.476Z,43.20
2018-07-08T09:16:55.895Z,42.60
2018-07-08T09:19:23.803Z,43.10
2018-07-08T09:21:52.923Z,42.80
2018-07-08T09:24:20.363Z,43.30
2018-07-08T09:26:47.912Z,42.70
2018-07-08T09:29:15.421Z,43.00
2018-07-08T09:31:42.839Z,43.20
2018-07-08T09:34:10.245Z,42.90
2018-07-08T09:39:08.625Z,42.90
2018-07-08T09:41:36.089Z,42.10
2018-07-08T09:44:03.573Z,41.50
2018-07-08T09:46:31.008Z,41.50
2018-07-08T09:48:58.495Z,41.60
2018-07-08T09:51:25.930Z,41.90
2018-07-08T09:53:53.384Z,42.10
2018-07-08T09:56:20.848Z,41.60
2018-07-08T09:58:48.412Z,41.90
2018-07-08T10:01:15.828Z,41.30
2018-07-08T10:03:43.332Z,40.90
2018-07-08T10:06:10.778Z,41.80
2018-07-08T10:08:38.270Z,41.10
2018-07-08T10:11:05.623Z,41.10
2018-07-08T10:13:33.072Z,40.90
2018-07-08T10:16:00.527Z,41.10
2018-07-08T10:18:27.969Z,41.20
2018-07-08T10:20:55.483Z,41.30
2018-07-08T10:23:23.057Z,41.40
2018-07-08T10:25:50.554Z,41.70
2018-07-08T10:28:21.823Z,41.30
2018-07-08T10:30:49.528Z,41.60
2018-07-08T10:33:16.942Z,41.20
2018-07-08T10:36:03.746Z,41.00
2018-07-08T10:38:31.522Z,39.10
2018-07-08T10:40:59.083Z,39.10
2018-07-08T10:43:26.557Z,38.60
2018-07-08T10:45:54.027Z,39.20
2018-07-08T10:48:21.448Z,38.10
2018-07-08T10:50:49.735Z,37.90
2018-07-08T10:53:17.289Z,37.70
2018-07-08T10:55:44.921Z,37.80
2018-07-08T10:58:12.705Z,38.10
2018-07-08T11:00:40.132Z,37.30
2018-07-08T11:03:07.618Z,37.00
2018-07-08T11:05:35.090Z,36.30
2018-07-08T11:08:02.565Z,36.70
2018-07-08T11:10:30.014Z,37.10
2018-07-08T11:12:57.504Z,38.00
2018-07-08T11:15:25.003Z,37.20
2018-07-08T11:17:52.415Z,36.50
2018-07-08T11:20:20.620Z,36.70
2018-07-08T11:22:48.185Z,37.00
2018-07-08T11:25:15.834Z,37.20
2018-07-08T11:27:43.286Z,37.10
2018-07-08T11:30:10.712Z,36.90
2018-07-08T11:32:38.144Z,37.00
2018-07-08T11:35:06.397Z,36.90
2018-07-08T11:37:33.864Z,36.80
2018-07-08T11:40:01.281Z,36.60
2018-07-08T11:42:28.770Z,36.70
2018-07-08T11:44:56.207Z,36.30
2018-07-08T11:47:23.663Z,35.00
2018-07-08T11:49:51.152Z,35.80
2018-07-08T11:52:18.571Z,35.40
2018-07-08T11:54:45.991Z,34.00
2018-07-08T11:57:13.399Z,34.40
2018-07-08T11:59:40.848Z,35.20
2018-07-08T12:02:08.272Z,34.80
2018-07-08T12:04:35.786Z,34.00
2018-07-08T12:07:03.240Z,34.00
2018-07-08T12:09:30.719Z,33.80
2018-07-08T12:11:58.163Z,34.10
2018-07-08T12:14:25.652Z,33.70
2018-07-08T12:16:53.064Z,33.30
2018-07-08T12:19:20.487Z,33.10
2018-07-08T12:21:47.919Z,33.60
2018-07-08T12:24:15.512Z,33.80
2018-07-08T12:26:43.015Z,33.80
2018-07-08T12:29:10.443Z,34.00
2018-07-08T12:31:37.864Z,34.00
2018-07-08T12:34:05.347Z,33.50
2018-07-08T12:36:32.798Z,33.30
2018-07-08T12:39:00.207Z,34.10
2018-07-08T12:41:27.691Z,33.50
2018-07-08T12:43:55.088Z,32.70
2018-07-08T12:46:22.512Z,33.00
2018-07-08T12:48:49.906Z,33.60
2018-07-08T12:51:17.342Z,34.00
2018-07-08T12:53:44.877Z,33.80
2018-07-08T12:56:12.364Z,33.50
2018-07-08T12:58:39.848Z,33.50
2018-07-08T13:01:07.272Z,34.30
2018-07-08T13:03:34.701Z,33.40
2018-07-08T13:06:02.142Z,33.60
2018-07-08T13:08:29.601Z,34.00
2018-07-08T13:10:57.045Z,34.00
2018-07-08T13:13:24.481Z,34.00
2018-07-08T13:15:52.168Z,32.90
2018-07-08T13:18:19.595Z,32.70
2018-07-08T13:20:47.044Z,33.00
2018-07-08T13:23:14.467Z,32.60
2018-07-08T13:25:41.937Z,32.80
2018-07-08T13:28:09.557Z,32.10
2018-07-08T13:30:37.025Z,32.30
2018-07-08T13:33:04.626Z,32.50
2018-07-08T13:35:32.047Z,33.10
2018-07-08T13:37:59.495Z,32.40
2018-07-08T13:40:26.968Z,32.30
2018-07-08T13:42:54.400Z,32.50
2018-07-08T13:45:21.903Z,32.80
2018-07-08T13:47:49.324Z,32.50
2018-07-08T13:50:16.997Z,32.30
2018-07-08T13:52:44.716Z,31.90
2018-07-08T13:55:12.152Z,32.00
2018-07-08T13:57:39.652Z,32.10
2018-07-08T14:00:07.253Z,31.20
2018-07-08T14:02:34.904Z,31.10
2018-07-08T14:05:02.338Z,31.00
2018-07-08T14:07:29.785Z,31.20
2018-07-08T14:09:57.263Z,31.10
2018-07-08T14:12:24.719Z,31.00
2018-07-08T14:14:52.228Z,31.50
2018-07-08T14:17:19.670Z,31.10
2018-07-08T14:19:47.136Z,32.00
2018-07-08T14:22:14.612Z,31.60
2018-07-08T14:24:42.427Z,31.90
2018-07-08T14:27:09.869Z,31.80
2018-07-08T14:29:37.354Z,31.20
2018-07-08T14:32:04.807Z,31.60
2018-07-08T14:34:32.231Z,31.60
2018-07-08T14:36:59.719Z,31.50
2018-07-08T14:39:27.595Z,31.70
2018-07-08T14:41:55.060Z,31.50
2018-07-08T14:44:22.492Z,31.60
2018-07-08T14:46:49.999Z,31.60
2018-07-08T14:49:17.443Z,31.60
2018-07-08T14:51:44.870Z,31.60
2018-07-08T14:54:12.291Z,31.40
2018-07-08T14:56:39.692Z,31.60
2018-07-08T14:59:07.109Z,32.00
2018-07-08T15:01:34.563Z,32.40
2018-07-08T15:04:01.981Z,32.70
2018-07-08T15:06:29.435Z,32.60
2018-07-08T15:09:01.432Z,31.70
2018-07-08T15:11:29.461Z,31.90
2018-07-08T15:13:56.869Z,31.70
2018-07-08T15:16:24.329Z,32.00
2018-07-08T15:18:51.796Z,32.20
2018-07-08T15:21:19.291Z,32.90
2018-07-08T15:23:46.638Z,32.30
2018-07-08T15:26:14.024Z,32.10
2018-07-08T15:28:41.411Z,31.20
2018-07-08T15:31:08.827Z,31.50
2018-07-08T15:33:36.296Z,31.50
2018-07-08T15:36:03.820Z,31.60
2018-07-08T15:38:31.452Z,31.20
2018-07-08T15:40:58.878Z,31.10
2018-07-08T15:43:26.287Z,30.60
2018-07-08T15:45:53.747Z,30.00
2018-07-08T15:48:21.176Z,30.50
2018-07-08T15:50:48.571Z,30.20
2018-07-08T15:53:16.015Z,30.00
2018-07-08T15:55:43.461Z,30.10
2018-07-08T15:58:10.855Z,30.10
2018-07-08T16:00:38.264Z,30.30
2018-07-08T16:03:05.723Z,30.00
2018-07-08T16:05:33.125Z,29.90
2018-07-08T16:08:00.567Z,30.00
2018-07-08T16:10:27.972Z,29.60
2018-07-08T16:12:55.420Z,28.80
2018-07-08T16:15:22.854Z,28.30
2018-07-08T16:17:50.608Z,28.30
2018-07-08T16:20:18.319Z,28.70
2018-07-08T16:22:45.735Z,28.90
2018-07-08T16:25:13.133Z,29.00
2018-07-08T16:27:40.603Z,28.80
2018-07-08T16:30:08.161Z,28.80
2018-07-08T16:32:35.825Z,28.90
2018-07-08T16:35:03.299Z,28.80
2018-07-08T16:37:30.836Z,28.90
2018-07-08T16:39:58.262Z,29.20
2018-07-08T16:44:53.879Z,29.70
2018-07-08T16:47:21.405Z,30.00
2018-07-08T16:49:48.863Z,30.00
2018-07-08T16:52:16.426Z,30.10
2018-07-08T16:54:43.940Z,30.70
2018-07-08T16:57:11.390Z,30.50
2018-07-08T16:59:39.003Z,30.90
2018-07-08T17:02:06.978Z,31.30
2018-07-08T17:04:34.744Z,31.90
2018-07-08T17:07:03.116Z,32.10
2018-07-08T17:09:30.590Z,32.20
2018-07-08T17:11:58.031Z,32.00
2018-07-08T17:14:25.561Z,31.80
2018-07-08T17:16:53.151Z,32.20
2018-07-08T17:19:20.627Z,32.20
2018-07-08T17:21:48.169Z,32.80
2018-07-08T17:24:15.820Z,32.30
2018-07-08T17:26:43.277Z,32.50
2018-07-08T17:29:10.763Z,32.60
2018-07-08T17:31:38.193Z,32.50
2018-07-08T17:34:05.693Z,32.20
2018-07-08T17:36:33.211Z,31.80
2018-07-08T17:39:00.782Z,31.60
2018-07-08T17:41:28.188Z,31.10
2018-07-08T17:43:55.751Z,31.20
2018-07-08T17:46:23.320Z,30.90
2018-07-08T17:48:51.112Z,30.90
2018-07-08T17:51:18.554Z,31.50
2018-07-08T17:53:46.003Z,31.60
2018-07-08T17:56:14.323Z,31.50
2018-07-08T17:58:41.843Z,31.70
2018-07-08T18:01:09.297Z,32.00
2018-07-08T18:03:36.807Z,32.00
2018-07-08T18:06:04.224Z,32.00
2018-07-08T18:08:32.636Z,32.10
2018-07-08T18:11:00.237Z,32.10
2018-07-08T18:13:27.787Z,32.30
2018-07-08T18:15:55.318Z,32.40
2018-07-08T18:18:23.042Z,32.60
2018-07-08T18:20:50.436Z,33.30
2018-07-08T18:23:17.895Z,33.70
2018-07-08T18:25:45.436Z,33.80
2018-07-08T18:28:12.815Z,33.70
2018-07-08T18:30:40.240Z,33.40
2018-07-08T18:33:07.647Z,33.20
2018-07-08T18:35:35.138Z,33.20
2018-07-08T18:38:02.610Z,33.40
2018-07-08T18:40:30.537Z,33.70
2018-07-08T18:42:57.943Z,33.80
2018-07-08T18:45:25.408Z,33.80
2018-07-08T18:47:52.902Z,34.00
2018-07-08T18:50:20.374Z,34.00
2018-07-08T18:52:47.776Z,34.10
2018-07-08T18:55:15.192Z,34.20
2018-07-08T18:57:42.592Z,34.20
2018-07-08T19:00:09.999Z,33.40
2018-07-08T19:02:37.489Z,33.10
2018-07-08T19:05:05.312Z,33.10
2018-07-08T19:07:33.183Z,32.90
2018-07-08T19:10:01.136Z,32.90
2018-07-08T19:12:29.172Z,33.30
2018-07-08T19:14:56.597Z,33.30
2018-07-08T19:19:51.545Z,33.60
2018-07-08T19:22:18.964Z,33.60
2018-07-08T19:24:46.386Z,33.60
2018-07-08T19:27:13.869Z,33.60
2018-07-08T19:29:41.403Z,34.00
2018-07-08T19:32:08.875Z,34.30
2018-07-08T19:34:36.595Z,34.70
2018-07-08T19:37:04.409Z,35.10
2018-07-08T19:39:31.875Z,35.30
2018-07-08T19:41:59.306Z,35.60
2018-07-08T19:44:26.769Z,36.20
2018-07-08T19:46:54.206Z,36.40
2018-07-08T19:49:21.636Z,36.70
2018-07-08T19:51:49.225Z,37.10
2018-07-08T19:54:16.745Z,37.20
2018-07-08T19:56:44.231Z,37.10
2018-07-08T19:59:11.699Z,37.50
2018-07-08T20:01:39.095Z,37.80
2018-07-08T20:04:06.511Z,38.00
2018-07-08T20:06:33.912Z,38.20
2018-07-08T20:09:01.357Z,38.30
2018-07-08T20:11:28.814Z,38.50
2018-07-08T20:13:56.308Z,38.80
2018-07-08T20:18:51.158Z,39.80
2018-07-08T20:21:18.778Z,39.60
2018-07-08T20:23:46.015Z,39.80
2018-07-08T20:26:13.431Z,40.80
2018-07-08T20:28:40.904Z,40.60
2018-07-08T20:31:08.349Z,40.70
2018-07-08T20:33:35.817Z,40.70
2018-07-08T20:36:03.272Z,41.30
2018-07-08T20:38:30.755Z,41.80
2018-07-08T20:40:58.730Z,41.60
2018-07-08T20:43:26.194Z,41.80
2018-07-08T20:45:53.672Z,42.40
2018-07-08T20:48:21.135Z,42.20
2018-07-08T20:50:48.836Z,42.50
2018-07-08T20:53:16.494Z,43.00
2018-07-08T20:55:44.082Z,42.90
2018-07-08T20:58:11.507Z,43.20
2018-07-08T21:00:38.960Z,43.40
2018-07-08T21:03:06.378Z,43.70
2018-07-08T21:05:33.833Z,43.80
2018-07-08T21:08:01.263Z,44.90
2018-07-08T21:10:29.209Z,44.60
2018-07-08T21:12:56.615Z,44.80
2018-07-08T21:17:51.558Z,45.80
2018-07-08T21:20:18.970Z,45.70
2018-07-08T21:22:46.371Z,46.20
2018-07-08T21:25:14.160Z,46.60
2018-07-08T21:27:41.589Z,46.70
2018-07-08T21:30:08.987Z,47.20
2018-07-08T21:32:36.429Z,47.60
2018-07-08T21:35:04.898Z,48.30
2018-07-08T21:37:32.340Z,49.10
2018-07-08T21:39:59.827Z,49.00
2018-07-08T21:42:27.307Z,49.90
2018-07-08T21:44:54.763Z,49.90
2018-07-08T21:47:22.172Z,51.30
2018-07-08T21:49:49.598Z,51.20
2018-07-08T21:52:16.988Z,52.70
2018-07-08T21:54:44.547Z,53.10
2018-07-08T21:57:11.945Z,53.00
2018-07-08T21:59:39.379Z,53.70
2018-07-08T22:02:10.431Z,54.30
2018-07-08T22:04:38.172Z,53.60
2018-07-08T22:07:11.240Z,54.30
2018-07-08T22:09:38.641Z,54.80
2018-07-08T22:12:06.095Z,54.90
2018-07-08T22:14:33.496Z,55.20
2018-07-08T22:17:00.983Z,54.80
2018-07-08T22:19:28.384Z,55.40
2018-07-08T22:21:55.885Z,55.10
2018-07-08T22:24:23.314Z,55.50
2018-07-08T22:26:50.719Z,55.20
2018-07-08T22:29:18.145Z,55.80
2018-07-08T22:31:45.556Z,55.50
2018-07-08T22:34:13.003Z,55.80
2018-07-08T22:36:40.394Z,56.00
2018-07-08T22:39:09.003Z,55.70
2018-07-08T22:41:36.591Z,56.80
2018-07-08T22:44:04.247Z,56.60
2018-07-08T22:46:31.786Z,57.10
2018-07-08T22:48:59.448Z,56.40
2018-07-08T22:51:26.872Z,56.90
2018-07-08T22:53:54.889Z,56.40
2018-07-08T22:56:22.648Z,57.00
2018-07-08T22:58:50.148Z,57.20
2018-07-08T23:01:29.239Z,57.20
2018-07-08T23:03:58.879Z,56.90
2018-07-08T23:06:26.292Z,57.30
2018-07-08T23:08:54.179Z,57.70
2018-07-08T23:11:22.327Z,57.70
2018-07-08T23:13:50.611Z,57.70
2018-07-08T23:16:18.273Z,57.90
2018-07-08T23:18:45.721Z,58.10
2018-07-08T23:21:13.167Z,58.10
2018-07-08T23:23:40.571Z,58.60
2018-07-08T23:26:08.007Z,58.60
2018-07-08T23:28:36.260Z,58.60
2018-07-08T23:31:04.231Z,59.30
2018-07-08T23:33:31.688Z,58.80
2018-07-08T23:35:59.973Z,59.20
2018-07-08T23:38:27.524Z,59.10
2018-07-08T23:40:54.935Z,60.20
2018-07-08T23:43:22.312Z,59.70
2018-07-08T23:45:49.726Z,60.20
2018-07-08T23:48:17.171Z,60.00
2018-07-08T23:50:44.650Z,59.50
2018-07-08T23:53:12.083Z,60.00
2018-07-08T23:55:39.503Z,60.80
2018-07-08T23:58:07.286Z,60.20
